Blean, United Kingdom
Current Conditions -  °F | °C
As of 9:50 PM on Monday 22 Dec 2014 (Local Time) from EGMC Reporting Station
Scattered Clouds Scattered Clouds  
Wind Chill: 11°   Ceiling: Unl
Heat Index: 11°   Visibility: 6mi
Dew Point:   Wind: 21mph
Humidity: 71%   Direction: 240°WSW
Pressure: 30.03"   Gusts: NA
Location:  51.31°N, 1.04°E
Report Text: EGMC 222150Z 24018KT 9999 SCT027 11/06 Q1017
Loading
Personal Weather Stations






























Interactive Weather Map New forecast layout! Learn more

10-Day Weather Forecast

Advertisements
Track Severe Weather on mobile